Pagrindinis puslapis
METAR-TAF:

METAR-TAF

Oro uostai :

Santa Krusas, Rio de Janeiro, Brazilija

platuma: 22-56S, ilguma: 043-43W, Aukštis: 3 m

Dabartinis oras

Ataskaita buvo paskelbta 1 valandą ir 8 minutes, ne 21:00 UTC
Vėjas 3 kt iš Šiaurės
Temperatūra 24°C
Drėgmė 89%
Slėgis 1008 hPa
Matomumas: 6000 m
Išsisklaidę debesys ne aukštis 1500 ft
Apsiniaukę ne aukštis 4000 ft
lietus

METAR: SBSC 122100Z 01003KT 6000 -RA SCT015 OVC040 24/22 Q1008

Laikas: 19:08 (22:08 UTC)

Prognozė

Ataskaita buvo paskelbta 7 valandos ir 8 minutes, ne 15:00 UTC
Prognozė galioja nuo 12 metu 18 UTC su 13 metu 06 UTC
Vėjas 5 kt iš Šiaurės/Šiaurės Rytų
Matomumas: 8000 m
Išsisklaidę debesys ne aukštis 800 ft
Su prošvaistėmis ne aukštis 1500 ft
Tikimybė 40% :
Laikinai
nuo 12 metu 20 UTC su 12 metu 22 UTC
Matomumas: 4000 m
Su prošvaistėmis ne aukštis 2000 ft
lietus

TAF: SBSC 121500Z 1218/1306 02005KT 8000 SCT008 BKN015 TX28/1218Z TN19/1306Z PROB40 TEMPO 1220/1222 4000 RA BKN020 RMK PCX

Orai ataskaitas ir orų prognozės (METAR, TAF).

turimą stotys yra geltonos ir raudonos taškus žemėlapyje.

Perkelti pele per norėdami pamatyti stoties vardą.

Tada spustelėkite, norėdami matyti oro stebėjimo ir prognozės.

Norėdami pakeisti žemėlapį: spustelėkite ant žalios mygtukų su juodo kryžiaus žemyn,; žalią mygtuką su brūkšneliu, jei norite nutolinti; arba žalių rodyklių gretimoms žemėlapius.


METAR-TAF: